createdAt,value
2022-08-25T00:02:03.402Z,6.00
2022-08-25T00:04:31.829Z,5.68
2022-08-25T00:07:03.408Z,5.63
2022-08-25T00:09:31.704Z,5.55
2022-08-25T00:11:59.231Z,6.32
2022-08-25T00:14:38.357Z,6.93
2022-08-25T00:17:06.443Z,6.13
2022-08-25T00:19:35.850Z,6.40
2022-08-25T00:22:03.956Z,6.25
2022-08-25T00:24:31.787Z,6.28
2022-08-25T00:27:00.017Z,6.22
2022-08-25T00:29:28.294Z,6.20
2022-08-25T00:31:56.538Z,6.28
2022-08-25T00:34:29.794Z,6.13
2022-08-25T00:36:57.245Z,5.80
2022-08-25T00:39:25.300Z,6.45
2022-08-25T00:41:56.724Z,6.07
2022-08-25T00:44:26.229Z,5.57
2022-08-25T00:49:35.869Z,7.13
2022-08-25T00:52:14.832Z,5.90
2022-08-25T00:54:52.254Z,6.75
2022-08-25T00:57:33.875Z,5.90
2022-08-25T01:00:02.597Z,6.00
2022-08-25T01:02:29.625Z,5.72
2022-08-25T01:04:56.565Z,6.72
2022-08-25T01:07:25.361Z,6.40
2022-08-25T01:09:53.478Z,6.53
2022-08-25T01:12:21.818Z,5.50
2022-08-25T01:14:50.241Z,6.35
2022-08-25T01:17:17.447Z,5.47
2022-08-25T01:19:44.592Z,5.93
2022-08-25T01:22:12.497Z,6.03
2022-08-25T01:24:55.186Z,6.13
2022-08-25T01:27:22.242Z,6.85
2022-08-25T01:29:49.774Z,6.18
2022-08-25T01:32:16.796Z,6.32
2022-08-25T01:34:45.596Z,5.45
2022-08-25T01:37:15.758Z,7.32
2022-08-25T01:39:43.862Z,5.50
2022-08-25T01:42:54.698Z,6.47
2022-08-25T01:45:22.144Z,6.55
2022-08-25T01:47:49.224Z,5.95
2022-08-25T01:50:16.256Z,6.22
2022-08-25T01:53:14.702Z,5.95
2022-08-25T01:55:55.991Z,6.25
2022-08-25T01:58:31.736Z,6.50
2022-08-25T02:01:02.504Z,5.93
2022-08-25T02:03:30.243Z,5.90
2022-08-25T02:06:01.408Z,6.05
2022-08-25T02:08:31.434Z,6.72
2022-08-25T02:10:58.758Z,5.38
2022-08-25T02:13:26.960Z,6.20
2022-08-25T02:16:00.967Z,6.72
2022-08-25T02:18:28.244Z,6.05
2022-08-25T02:20:55.196Z,6.45
2022-08-25T02:23:22.215Z,5.85
2022-08-25T02:25:49.255Z,6.07
2022-08-25T02:28:18.342Z,6.75
2022-08-25T02:30:45.990Z,6.57
2022-08-25T02:33:13.032Z,6.13
2022-08-25T02:35:40.041Z,6.63
2022-08-25T02:38:07.695Z,6.03
2022-08-25T02:40:35.187Z,6.32
2022-08-25T02:43:02.388Z,6.65
2022-08-25T02:45:29.588Z,6.40
2022-08-25T02:47:56.912Z,6.30
2022-08-25T02:50:23.974Z,6.88
2022-08-25T02:52:52.034Z,9.88
2022-08-25T02:55:20.009Z,10.27
2022-08-25T02:57:48.377Z,9.20
2022-08-25T03:00:16.919Z,8.00
2022-08-25T03:02:44.893Z,7.95
2022-08-25T03:05:12.828Z,7.13
2022-08-25T03:07:39.978Z,6.80
2022-08-25T03:10:13.961Z,6.88
2022-08-25T03:12:45.694Z,6.47
2022-08-25T03:15:19.224Z,7.60
2022-08-25T03:17:47.494Z,6.60
2022-08-25T03:20:14.529Z,7.13
2022-08-25T03:22:42.717Z,6.85
2022-08-25T03:25:28.783Z,7.50
2022-08-25T03:27:56.053Z,6.93
2022-08-25T03:30:23.108Z,6.53
2022-08-25T03:32:50.534Z,7.10
2022-08-25T03:35:19.256Z,7.70
2022-08-25T03:37:46.439Z,6.40
2022-08-25T03:40:16.432Z,7.75
2022-08-25T03:42:47.085Z,7.30
2022-08-25T03:45:16.569Z,7.35
2022-08-25T03:47:47.045Z,6.55
2022-08-25T03:50:14.470Z,6.75
2022-08-25T03:52:42.696Z,7.28
2022-08-25T03:55:12.230Z,7.00
2022-08-25T03:57:39.590Z,7.18
2022-08-25T04:00:09.225Z,6.80
2022-08-25T04:05:03.502Z,7.25
2022-08-25T04:07:31.114Z,7.20
2022-08-25T04:09:58.177Z,6.90
2022-08-25T04:12:25.450Z,6.53
2022-08-25T04:14:52.911Z,6.97
2022-08-25T04:17:20.019Z,7.45
2022-08-25T04:19:47.064Z,8.30
2022-08-25T04:22:14.083Z,9.38
2022-08-25T04:24:41.068Z,7.82
2022-08-25T04:27:08.144Z,9.30
2022-08-25T04:29:36.322Z,7.00
2022-08-25T04:32:09.184Z,8.05
2022-08-25T04:34:38.291Z,8.43
2022-08-25T04:37:08.602Z,7.70
2022-08-25T04:39:36.305Z,6.80
2022-08-25T04:42:05.454Z,6.82
2022-08-25T04:44:32.780Z,5.50
2022-08-25T04:47:00.486Z,6.30
2022-08-25T04:49:28.881Z,6.10
2022-08-25T04:51:57.585Z,6.93
2022-08-25T04:54:24.693Z,7.50
2022-08-25T04:56:54.122Z,6.47
2022-08-25T04:59:23.639Z,6.10
2022-08-25T05:01:58.754Z,7.18
2022-08-25T05:06:56.753Z,7.03
2022-08-25T05:09:25.102Z,5.68
2022-08-25T05:11:52.867Z,7.38
2022-08-25T05:14:25.697Z,7.47
2022-08-25T05:16:58.105Z,6.40
2022-08-25T05:19:25.447Z,6.70
2022-08-25T05:21:52.963Z,6.72
2022-08-25T05:24:20.584Z,7.32
2022-08-25T05:26:47.632Z,6.13
2022-08-25T05:29:15.734Z,6.40
2022-08-25T05:31:49.880Z,6.78
2022-08-25T05:34:19.119Z,7.03
2022-08-25T05:36:47.107Z,6.27
2022-08-25T05:39:14.584Z,6.10
2022-08-25T05:41:41.674Z,6.72
2022-08-25T05:44:08.687Z,5.80
2022-08-25T05:46:35.668Z,6.10
2022-08-25T05:49:02.813Z,6.38
2022-08-25T05:51:29.808Z,7.32
2022-08-25T05:53:56.837Z,5.82
2022-08-25T05:56:23.908Z,6.63
2022-08-25T05:58:50.876Z,6.80
2022-08-25T06:01:46.682Z,5.95
2022-08-25T06:04:17.776Z,6.35
2022-08-25T06:06:44.808Z,6.28
2022-08-25T06:09:11.789Z,6.38
2022-08-25T06:11:40.326Z,5.78
2022-08-25T06:14:09.650Z,6.20
2022-08-25T06:16:37.360Z,6.25
2022-08-25T06:19:05.345Z,7.43
2022-08-25T06:21:32.373Z,6.60
2022-08-25T06:23:59.399Z,5.57
2022-08-25T06:26:27.013Z,6.47
2022-08-25T06:28:54.158Z,6.60
2022-08-25T06:31:22.619Z,6.68
2022-08-25T06:33:50.179Z,6.67
2022-08-25T06:36:17.576Z,6.45
2022-08-25T06:38:44.682Z,7.57
2022-08-25T06:41:12.803Z,6.32
2022-08-25T06:43:47.371Z,6.68
2022-08-25T06:46:19.920Z,6.97
2022-08-25T06:48:47.597Z,6.60
2022-08-25T06:51:18.369Z,7.85
2022-08-25T06:53:47.807Z,8.13
2022-08-25T06:56:16.714Z,8.65
2022-08-25T06:58:44.079Z,7.30
2022-08-25T07:01:19.972Z,7.38
2022-08-25T07:03:48.447Z,7.53
2022-08-25T07:06:18.369Z,7.43
2022-08-25T07:08:46.835Z,7.35
2022-08-25T07:11:16.335Z,7.35
2022-08-25T07:13:45.217Z,7.45
2022-08-25T07:16:12.708Z,6.72
2022-08-25T07:18:39.733Z,6.50
2022-08-25T07:21:08.808Z,7.18
2022-08-25T07:23:37.044Z,7.90
2022-08-25T07:26:37.422Z,8.68
2022-08-25T07:29:09.662Z,8.75
2022-08-25T07:31:37.519Z,9.32
2022-08-25T07:34:23.390Z,8.70
2022-08-25T07:36:50.308Z,8.85
2022-08-25T07:39:17.723Z,8.50
2022-08-25T07:41:51.982Z,9.05
2022-08-25T07:44:20.786Z,8.38
2022-08-25T07:46:48.698Z,6.95
2022-08-25T07:49:22.980Z,7.82
2022-08-25T07:52:05.697Z,7.60
2022-08-25T07:54:37.699Z,7.20
2022-08-25T07:57:06.893Z,7.50
2022-08-25T07:59:39.614Z,7.43
2022-08-25T08:02:16.239Z,7.53
2022-08-25T08:04:48.956Z,7.63
2022-08-25T08:07:18.636Z,7.47
2022-08-25T08:09:46.129Z,7.05
2022-08-25T08:12:13.145Z,6.32
2022-08-25T08:14:44.984Z,7.78
2022-08-25T08:17:13.845Z,7.63
2022-08-25T08:19:44.817Z,6.82
2022-08-25T08:22:15.750Z,6.45
2022-08-25T08:24:54.138Z,6.60
2022-08-25T08:27:22.011Z,7.25
2022-08-25T08:29:49.434Z,6.53
2022-08-25T08:32:18.628Z,6.97
2022-08-25T08:34:46.702Z,6.40
2022-08-25T08:37:20.322Z,6.35
2022-08-25T08:39:51.395Z,6.78
2022-08-25T08:42:18.409Z,6.27
2022-08-25T08:44:45.391Z,6.80
2022-08-25T08:47:15.136Z,6.95
2022-08-25T08:49:53.075Z,7.75
2022-08-25T08:52:24.391Z,6.15
2022-08-25T08:55:00.993Z,6.45
2022-08-25T08:57:30.219Z,6.35
2022-08-25T09:00:02.348Z,7.22
2022-08-25T09:02:39.413Z,6.72
2022-08-25T09:05:21.025Z,6.20
2022-08-25T09:08:05.359Z,6.72
2022-08-25T09:10:59.419Z,6.25
2022-08-25T09:13:42.354Z,6.70
2022-08-25T09:16:50.812Z,7.40
2022-08-25T09:19:46.656Z,6.30
2022-08-25T09:22:44.230Z,7.95
2022-08-25T09:25:48.747Z,7.10
2022-08-25T09:28:30.871Z,6.78
2022-08-25T09:31:05.182Z,6.85
2022-08-25T09:33:35.608Z,6.80
2022-08-25T09:36:04.485Z,6.90
2022-08-25T09:38:32.998Z,7.10
2022-08-25T09:41:01.302Z,7.03
2022-08-25T09:43:38.348Z,6.95
2022-08-25T09:46:26.987Z,6.78
2022-08-25T09:49:16.778Z,6.00
2022-08-25T09:51:44.774Z,6.15
2022-08-25T09:54:15.352Z,6.75
2022-08-25T09:57:09.299Z,6.28
2022-08-25T09:59:37.364Z,6.10
2022-08-25T10:02:18.519Z,6.43
2022-08-25T10:04:46.616Z,6.05
2022-08-25T10:07:28.323Z,6.03
2022-08-25T10:10:01.821Z,6.40
2022-08-25T10:23:52.904Z,7.15
2022-08-25T10:26:57.775Z,6.85
2022-08-25T10:30:03.039Z,6.25
2022-08-25T10:32:46.276Z,6.50
2022-08-25T10:35:18.742Z,7.80
2022-08-25T10:38:12.011Z,6.75
2022-08-25T10:40:54.336Z,6.38
2022-08-25T10:43:50.089Z,7.03
2022-08-25T10:46:38.258Z,6.70
2022-08-25T10:49:10.866Z,6.13
2022-08-25T10:51:55.474Z,7.20
2022-08-25T10:54:44.475Z,6.25
2022-08-25T10:57:19.272Z,6.55
2022-08-25T11:00:06.627Z,7.60
2022-08-25T11:03:07.733Z,6.38
2022-08-25T11:06:00.135Z,6.38
2022-08-25T11:08:49.943Z,6.85
2022-08-25T11:11:24.350Z,5.88
2022-08-25T11:13:57.606Z,6.55
2022-08-25T11:16:46.120Z,6.13
2022-08-25T11:19:26.896Z,7.50
2022-08-25T11:22:10.019Z,6.57
2022-08-25T11:24:55.864Z,5.88
2022-08-25T11:27:28.404Z,6.10
2022-08-25T11:30:05.884Z,6.63
2022-08-25T11:32:35.727Z,6.55
2022-08-25T11:35:06.315Z,6.47
2022-08-25T11:37:34.185Z,6.70
2022-08-25T11:40:04.095Z,6.47
2022-08-25T11:43:08.169Z,6.78
2022-08-25T11:45:54.439Z,6.30
2022-08-25T11:48:22.145Z,6.00
2022-08-25T11:51:19.867Z,6.45
2022-08-25T11:54:04.930Z,6.95
2022-08-25T11:56:36.578Z,6.32
2022-08-25T11:59:07.219Z,5.97
2022-08-25T12:01:40.417Z,5.97
2022-08-25T12:04:45.263Z,7.20
2022-08-25T12:07:41.264Z,5.97
2022-08-25T12:10:13.092Z,6.78
2022-08-25T12:12:46.184Z,5.80
2022-08-25T12:15:30.211Z,5.32
2022-08-25T12:18:45.997Z,6.05
2022-08-25T12:21:15.234Z,5.13
2022-08-25T12:23:44.805Z,5.63
2022-08-25T12:26:23.461Z,6.43
2022-08-25T12:29:08.484Z,6.05
2022-08-25T12:31:59.114Z,6.30
2022-08-25T12:34:50.223Z,6.65
2022-08-25T12:37:18.656Z,5.72
2022-08-25T12:40:04.157Z,9.35
2022-08-25T12:42:36.231Z,6.60
2022-08-25T12:45:19.760Z,5.43
2022-08-25T12:47:49.169Z,6.15
2022-08-25T12:50:40.920Z,9.13
2022-08-25T12:53:29.393Z,8.38
2022-08-25T12:56:37.458Z,6.57
2022-08-25T13:02:31.348Z,5.88
2022-08-25T13:05:36.658Z,5.60
2022-08-25T13:08:26.842Z,6.82
2022-08-25T13:13:55.362Z,5.88
2022-08-25T13:16:29.620Z,6.60
2022-08-25T13:18:59.638Z,7.90
2022-08-25T13:21:43.467Z,5.90
2022-08-25T13:24:22.343Z,5.80
2022-08-25T13:26:54.950Z,5.93
2022-08-25T13:29:35.068Z,6.07
2022-08-25T13:32:09.579Z,6.43
2022-08-25T13:34:42.550Z,6.68
2022-08-25T13:37:30.371Z,6.30
2022-08-25T13:40:24.735Z,6.53
2022-08-25T13:43:02.668Z,5.50
2022-08-25T13:45:41.448Z,5.75
2022-08-25T13:48:22.673Z,5.53
2022-08-25T13:50:52.489Z,5.47
2022-08-25T13:53:30.393Z,5.65
2022-08-25T13:56:00.630Z,5.03
2022-08-25T13:58:45.207Z,5.38
2022-08-25T14:01:47.744Z,5.57
2022-08-25T14:04:51.515Z,5.88
2022-08-25T14:07:22.415Z,6.18
2022-08-25T14:09:52.237Z,6.80
2022-08-25T14:12:30.343Z,7.70
2022-08-25T14:15:04.804Z,7.13
2022-08-25T14:17:39.152Z,8.00
2022-08-25T14:20:22.512Z,7.18
2022-08-25T14:22:58.032Z,7.55
2022-08-25T14:25:26.888Z,7.15
2022-08-25T14:28:07.147Z,8.32
2022-08-25T14:30:55.675Z,7.88
2022-08-25T14:33:28.188Z,7.38
2022-08-25T14:35:58.262Z,8.25
2022-08-25T14:38:25.845Z,8.50
2022-08-25T14:40:53.605Z,7.50
2022-08-25T14:43:23.978Z,8.25
2022-08-25T14:45:59.567Z,7.75
2022-08-25T14:48:37.331Z,7.65
2022-08-25T14:51:05.050Z,7.68
2022-08-25T14:53:32.486Z,7.55
2022-08-25T14:56:01.053Z,7.95
2022-08-25T14:58:35.482Z,8.45
2022-08-25T15:01:17.738Z,7.05
2022-08-25T15:03:50.580Z,6.88
2022-08-25T15:06:18.527Z,6.65
2022-08-25T15:09:03.775Z,6.50
2022-08-25T15:11:31.933Z,6.80
2022-08-25T15:14:02.365Z,7.82
2022-08-25T15:16:36.469Z,7.80
2022-08-25T15:19:16.087Z,8.00
2022-08-25T15:21:44.918Z,8.50
2022-08-25T15:24:17.777Z,9.15
2022-08-25T15:26:59.831Z,9.30
2022-08-25T15:29:30.236Z,9.75
2022-08-25T15:31:58.732Z,9.60
2022-08-25T15:34:26.195Z,8.15
2022-08-25T15:36:53.368Z,8.82
2022-08-25T15:39:20.676Z,9.20
2022-08-25T15:41:54.239Z,11.48
2022-08-25T15:44:25.062Z,10.73
2022-08-25T15:46:56.401Z,11.40
2022-08-25T15:49:24.202Z,14.60
2022-08-25T15:51:55.739Z,13.90
2022-08-25T15:54:23.922Z,14.02
2022-08-25T15:56:55.342Z,14.77
2022-08-25T15:59:22.989Z,15.73
2022-08-25T16:01:55.145Z,17.73
2022-08-25T16:04:24.089Z,16.73
2022-08-25T16:06:52.103Z,15.88
2022-08-25T16:09:22.839Z,16.38
2022-08-25T16:11:56.606Z,15.38
2022-08-25T16:14:25.404Z,15.15
2022-08-25T16:16:58.274Z,14.02
2022-08-25T16:19:28.583Z,15.52
2022-08-25T16:21:56.191Z,14.88
2022-08-25T16:24:23.478Z,14.52
2022-08-25T16:26:51.777Z,16.33
2022-08-25T16:29:19.866Z,15.40
2022-08-25T16:31:53.286Z,14.00
2022-08-25T16:34:22.303Z,14.10
2022-08-25T16:36:52.404Z,14.60
2022-08-25T16:39:20.671Z,15.15
2022-08-25T16:41:48.455Z,13.20
2022-08-25T16:44:19.335Z,13.43
2022-08-25T16:46:54.161Z,12.75
2022-08-25T16:49:21.592Z,12.80
2022-08-25T16:51:57.241Z,11.82
2022-08-25T16:54:44.302Z,11.50
2022-08-25T16:57:12.024Z,10.60
2022-08-25T16:59:39.114Z,10.27
2022-08-25T17:02:06.735Z,10.52
2022-08-25T17:04:33.801Z,10.95
2022-08-25T17:07:01.743Z,10.13
2022-08-25T17:09:29.707Z,10.13
2022-08-25T17:11:57.354Z,11.15
2022-08-25T17:14:25.066Z,10.55
2022-08-25T17:16:55.232Z,11.00
2022-08-25T17:19:25.069Z,11.38
2022-08-25T17:21:54.846Z,11.50
2022-08-25T17:24:29.427Z,11.02
2022-08-25T17:26:59.076Z,11.80
2022-08-25T17:29:26.373Z,12.82
2022-08-25T17:31:53.496Z,11.43
2022-08-25T17:34:23.097Z,10.70
2022-08-25T17:36:51.055Z,10.30
2022-08-25T17:39:22.148Z,8.88
2022-08-25T17:41:50.150Z,8.93
2022-08-25T17:44:17.344Z,10.35
2022-08-25T17:46:47.356Z,9.18
2022-08-25T17:49:18.097Z,9.68
2022-08-25T17:51:45.345Z,9.60
2022-08-25T17:54:12.945Z,10.57
2022-08-25T17:56:40.305Z,11.43
2022-08-25T17:59:07.611Z,10.07
2022-08-25T18:01:40.335Z,10.55
2022-08-25T18:04:16.998Z,10.95
2022-08-25T18:06:45.195Z,10.80
2022-08-25T18:09:12.895Z,10.90
2022-08-25T18:11:39.801Z,9.13
2022-08-25T18:14:06.734Z,9.75
2022-08-25T18:16:38.922Z,10.80
2022-08-25T18:19:09.837Z,9.18
2022-08-25T18:21:37.636Z,9.55
2022-08-25T18:24:05.862Z,9.20
2022-08-25T18:26:34.031Z,9.05
2022-08-25T18:29:03.616Z,8.27
2022-08-25T18:31:30.757Z,8.95
2022-08-25T18:33:59.222Z,8.57
2022-08-25T18:36:26.213Z,6.97
2022-08-25T18:39:14.569Z,7.43
2022-08-25T18:41:59.180Z,6.68
2022-08-25T18:44:58.623Z,5.68
2022-08-25T18:50:18.839Z,5.68
2022-08-25T18:52:56.778Z,5.70
2022-08-25T18:55:24.398Z,5.18
2022-08-25T18:57:52.131Z,5.85
2022-08-25T19:00:21.325Z,5.65
2022-08-25T19:02:50.779Z,5.28
2022-08-25T19:05:22.725Z,5.63
2022-08-25T19:07:52.075Z,5.30
2022-08-25T19:10:19.994Z,5.10
2022-08-25T19:12:51.002Z,5.30
2022-08-25T19:15:18.453Z,5.13
2022-08-25T19:17:53.275Z,5.03
2022-08-25T19:20:21.722Z,7.65
2022-08-25T19:22:49.454Z,5.30
2022-08-25T19:25:19.006Z,5.65
2022-08-25T19:27:46.418Z,5.60
2022-08-25T19:30:15.648Z,5.53
2022-08-25T19:32:44.308Z,5.57
2022-08-25T19:35:20.481Z,5.28
2022-08-25T19:37:51.317Z,4.32
2022-08-25T19:40:20.844Z,4.55
2022-08-25T19:42:53.822Z,4.00
2022-08-25T19:45:25.855Z,4.55
2022-08-25T19:47:53.422Z,4.80
2022-08-25T19:50:21.756Z,4.38
2022-08-25T19:52:49.866Z,4.68
2022-08-25T19:55:17.909Z,5.05
2022-08-25T19:57:45.918Z,3.95
2022-08-25T20:00:20.779Z,10.50
2022-08-25T20:02:48.805Z,5.22
2022-08-25T20:05:17.039Z,5.40
2022-08-25T20:07:52.128Z,5.90
2022-08-25T20:10:20.263Z,5.32
2022-08-25T20:12:47.530Z,5.53
2022-08-25T20:15:16.669Z,5.20
2022-08-25T20:17:45.046Z,5.20
2022-08-25T20:20:16.002Z,5.57
2022-08-25T20:22:43.082Z,4.95
2022-08-25T20:25:17.610Z,4.60
2022-08-25T20:27:48.824Z,3.60
2022-08-25T20:30:28.844Z,3.50
2022-08-25T20:32:57.692Z,3.58
2022-08-25T20:35:26.923Z,3.80
2022-08-25T20:37:55.129Z,4.03
2022-08-25T20:40:26.165Z,4.03
2022-08-25T20:42:55.012Z,3.95
2022-08-25T20:45:22.918Z,4.43
2022-08-25T20:47:50.431Z,5.43
2022-08-25T20:50:18.976Z,3.85
2022-08-25T20:52:46.282Z,4.20
2022-08-25T20:57:46.193Z,4.20
2022-08-25T21:00:14.479Z,3.90
2022-08-25T21:02:42.914Z,3.60
2022-08-25T21:05:10.012Z,4.40
2022-08-25T21:07:37.157Z,3.97
2022-08-25T21:10:14.020Z,3.90
2022-08-25T21:12:42.219Z,4.47
2022-08-25T21:15:10.585Z,15.27
2022-08-25T21:17:37.574Z,4.43
2022-08-25T21:20:06.728Z,3.97
2022-08-25T21:22:35.483Z,4.07
2022-08-25T21:25:02.763Z,7.07
2022-08-25T21:27:30.174Z,14.88
2022-08-25T21:29:57.222Z,10.65
2022-08-25T21:32:24.681Z,12.02
2022-08-25T21:34:53.766Z,14.10
2022-08-25T21:37:21.215Z,7.53
2022-08-25T21:39:48.199Z,4.65
2022-08-25T21:42:15.216Z,3.10
2022-08-25T21:44:42.350Z,3.50
2022-08-25T21:47:09.973Z,3.08
2022-08-25T21:49:37.705Z,3.67
2022-08-25T21:52:05.788Z,4.20
2022-08-25T21:54:33.466Z,5.10
2022-08-25T21:57:02.128Z,5.03
2022-08-25T21:59:30.743Z,4.90
2022-08-25T22:02:01.005Z,4.50
2022-08-25T22:04:29.245Z,4.72
2022-08-25T22:06:58.087Z,4.55
2022-08-25T22:09:26.072Z,4.85
2022-08-25T22:11:55.861Z,4.07
2022-08-25T22:14:26.007Z,5.47
2022-08-25T22:16:54.385Z,4.68
2022-08-25T22:19:21.747Z,4.95
2022-08-25T22:21:51.102Z,4.57
2022-08-25T22:24:19.024Z,4.45
2022-08-25T22:26:47.662Z,5.00
2022-08-25T22:29:25.880Z,3.90
2022-08-25T22:31:59.814Z,4.18
2022-08-25T22:34:30.600Z,4.30
2022-08-25T22:39:27.193Z,4.38
2022-08-25T22:41:55.451Z,4.85
2022-08-25T22:44:23.341Z,4.68
2022-08-25T22:46:50.712Z,4.35
2022-08-25T22:49:18.318Z,4.35
2022-08-25T22:51:46.943Z,3.75
2022-08-25T22:54:15.196Z,3.47
2022-08-25T22:56:42.797Z,4.20
2022-08-25T22:59:12.018Z,4.45
2022-08-25T23:01:39.734Z,3.58
2022-08-25T23:04:08.532Z,3.33
2022-08-25T23:06:38.310Z,3.55
2022-08-25T23:09:07.634Z,3.33
2022-08-25T23:11:38.623Z,3.30
2022-08-25T23:14:08.411Z,3.00
2022-08-25T23:16:35.973Z,2.90
2022-08-25T23:19:03.374Z,3.30
2022-08-25T23:21:52.511Z,3.42
2022-08-25T23:24:30.007Z,3.10
2022-08-25T23:27:00.665Z,3.25
2022-08-25T23:29:28.488Z,3.40
2022-08-25T23:31:56.607Z,3.13
2022-08-25T23:34:24.611Z,3.22
2022-08-25T23:36:51.956Z,3.25
2022-08-25T23:39:19.134Z,4.32
2022-08-25T23:41:49.459Z,4.25
2022-08-25T23:44:17.081Z,3.75
2022-08-25T23:46:45.312Z,4.20
2022-08-25T23:49:15.150Z,3.80
2022-08-25T23:51:47.114Z,4.38
2022-08-25T23:54:15.920Z,4.03
2022-08-25T23:56:51.986Z,3.55
2022-08-25T23:59:24.034Z,3.75
